sensor_id;sensor_type;location;lat;lon;timestamp;pressure;altitude;pressure_sealevel;temperature;humidity
61018;BME280;48171;51.550;5.434;2023-07-13T00:00:27;101402.78;;;17.50;69.38
61018;BME280;48171;51.550;5.434;2023-07-13T00:02:53;101416.06;;;17.53;69.85
61018;BME280;48171;51.550;5.434;2023-07-13T00:05:20;101422.41;;;17.49;69.35
61018;BME280;48171;51.550;5.434;2023-07-13T00:07:45;101411.66;;;17.51;71.12
61018;BME280;48171;51.550;5.434;2023-07-13T00:10:11;101424.31;;;17.44;69.47
61018;BME280;48171;51.550;5.434;2023-07-13T00:12:38;101422.69;;;17.38;70.73
61018;BME280;48171;51.550;5.434;2023-07-13T00:15:12;101418.28;;;17.37;70.47
61018;BME280;48171;51.550;5.434;2023-07-13T00:17:37;101415.53;;;17.39;71.02
61018;BME280;48171;51.550;5.434;2023-07-13T00:20:05;101414.66;;;17.38;71.21
61018;BME280;48171;51.550;5.434;2023-07-13T00:22:30;101408.44;;;17.38;71.12
61018;BME280;48171;51.550;5.434;2023-07-13T00:24:56;101411.28;;;17.32;70.50
61018;BME280;48171;51.550;5.434;2023-07-13T00:27:22;101411.13;;;17.38;72.00
61018;BME280;48171;51.550;5.434;2023-07-13T00:29:48;101411.13;;;17.38;71.35
61018;BME280;48171;51.550;5.434;2023-07-13T00:32:13;101412.97;;;17.36;71.82
61018;BME280;48171;51.550;5.434;2023-07-13T00:34:39;101419.16;;;17.36;72.00
61018;BME280;48171;51.550;5.434;2023-07-13T00:37:06;101421.09;;;17.31;71.51
61018;BME280;48171;51.550;5.434;2023-07-13T00:39:32;101424.69;;;17.29;72.49
61018;BME280;48171;51.550;5.434;2023-07-13T00:41:58;101419.47;;;17.26;72.69
61018;BME280;48171;51.550;5.434;2023-07-13T00:44:24;101413.34;;;17.20;72.78
61018;BME280;48171;51.550;5.434;2023-07-13T00:46:49;101419.75;;;17.15;72.25
61018;BME280;48171;51.550;5.434;2023-07-13T00:49:17;101419.94;;;17.07;72.69
61018;BME280;48171;51.550;5.434;2023-07-13T00:52:00;101426.09;;;17.09;72.55
61018;BME280;48171;51.550;5.434;2023-07-13T00:54:30;101414.66;;;17.04;73.83
61018;BME280;48171;51.550;5.434;2023-07-13T00:56:59;101426.97;;;17.10;73.74
61018;BME280;48171;51.550;5.434;2023-07-13T00:59:26;101431.47;;;17.08;73.44
61018;BME280;48171;51.550;5.434;2023-07-13T01:01:51;101423.44;;;17.09;74.03
61018;BME280;48171;51.550;5.434;2023-07-13T01:04:18;101421.78;;;17.04;73.34
61018;BME280;48171;51.550;5.434;2023-07-13T01:06:43;101418.19;;;17.05;74.17
61018;BME280;48171;51.550;5.434;2023-07-13T01:09:11;101418.19;;;17.05;74.20
61018;BME280;48171;51.550;5.434;2023-07-13T01:11:36;101421.75;;;17.05;73.99
61018;BME280;48171;51.550;5.434;2023-07-13T01:14:03;101419.19;;;17.00;73.44
61018;BME280;48171;51.550;5.434;2023-07-13T01:16:34;101418.34;;;16.98;74.60
61018;BME280;48171;51.550;5.434;2023-07-13T01:18:59;101424.50;;;17.02;74.51
61018;BME280;48171;51.550;5.434;2023-07-13T01:21:28;101427.31;;;16.96;74.44
61018;BME280;48171;51.550;5.434;2023-07-13T01:23:54;101429.09;;;16.95;75.31
61018;BME280;48171;51.550;5.434;2023-07-13T01:26:20;101429.09;;;16.97;75.26
61018;BME280;48171;51.550;5.434;2023-07-13T01:28:45;101428.19;;;16.96;75.73
61018;BME280;48171;51.550;5.434;2023-07-13T01:31:11;101425.72;;;16.89;74.66
61018;BME280;48171;51.550;5.434;2023-07-13T01:33:38;101438.97;;;16.92;75.83
61018;BME280;48171;51.550;5.434;2023-07-13T01:36:07;101436.41;;;16.87;75.11
61018;BME280;48171;51.550;5.434;2023-07-13T01:38:33;101442.75;;;16.83;75.55
61018;BME280;48171;51.550;5.434;2023-07-13T01:40:59;101433.03;;;16.79;75.81
61018;BME280;48171;51.550;5.434;2023-07-13T01:43:24;101442.78;;;16.80;76.17
61018;BME280;48171;51.550;5.434;2023-07-13T01:50:55;101441.09;;;16.76;75.94
61018;BME280;48171;51.550;5.434;2023-07-13T01:53:21;101443.84;;;16.73;76.16
61018;BME280;48171;51.550;5.434;2023-07-13T01:55:46;101443.06;;;16.68;76.75
61018;BME280;48171;51.550;5.434;2023-07-13T01:58:12;101445.69;;;16.69;77.59
61018;BME280;48171;51.550;5.434;2023-07-13T02:00:37;101443.94;;;16.68;77.91
61018;BME280;48171;51.550;5.434;2023-07-13T02:03:03;101436.91;;;16.64;76.85
61018;BME280;48171;51.550;5.434;2023-07-13T02:05:28;101446.66;;;16.67;77.47
61018;BME280;48171;51.550;5.434;2023-07-13T02:07:53;101441.25;;;16.68;79.04
61018;BME280;48171;51.550;5.434;2023-07-13T02:10:19;101445.75;;;16.66;77.89
61018;BME280;48171;51.550;5.434;2023-07-13T02:12:44;101456.47;;;16.65;78.50
61018;BME280;48171;51.550;5.434;2023-07-13T02:15:10;101449.38;;;16.64;78.55
61018;BME280;48171;51.550;5.434;2023-07-13T02:17:35;101450.38;;;16.58;77.57
61018;BME280;48171;51.550;5.434;2023-07-13T02:20:02;101444.41;;;16.48;78.42
61018;BME280;48171;51.550;5.434;2023-07-13T02:22:28;101454.31;;;16.42;78.06
61018;BME280;48171;51.550;5.434;2023-07-13T02:24:53;101448.94;;;16.43;79.76
61018;BME280;48171;51.550;5.434;2023-07-13T02:27:19;101450.72;;;16.44;79.54
61018;BME280;48171;51.550;5.434;2023-07-13T02:29:44;101449.00;;;16.40;79.07
61018;BME280;48171;51.550;5.434;2023-07-13T02:32:10;101444.63;;;16.36;78.82
61018;BME280;48171;51.550;5.434;2023-07-13T02:34:36;101446.41;;;16.37;79.89
61018;BME280;48171;51.550;5.434;2023-07-13T02:37:01;101442.78;;;16.39;79.69
61018;BME280;48171;51.550;5.434;2023-07-13T02:41:57;101445.56;;;16.35;79.89
61018;BME280;48171;51.550;5.434;2023-07-13T02:44:22;101450.78;;;16.39;80.01
61018;BME280;48171;51.550;5.434;2023-07-13T02:46:48;101450.78;;;16.39;80.04
61018;BME280;48171;51.550;5.434;2023-07-13T02:49:13;101442.91;;;16.35;79.92
61018;BME280;48171;51.550;5.434;2023-07-13T02:51:38;101450.06;;;16.33;79.99
61018;BME280;48171;51.550;5.434;2023-07-13T02:54:04;101452.75;;;16.31;79.88
61018;BME280;48171;51.550;5.434;2023-07-13T02:56:31;101450.06;;;16.31;80.58
61018;BME280;48171;51.550;5.434;2023-07-13T02:58:57;101446.50;;;16.32;80.69
61018;BME280;48171;51.550;5.434;2023-07-13T03:01:23;101445.81;;;16.24;80.47
61018;BME280;48171;51.550;5.434;2023-07-13T03:03:50;101455.56;;;16.24;80.40
61018;BME280;48171;51.550;5.434;2023-07-13T03:06:16;101447.66;;;16.19;80.56
61018;BME280;48171;51.550;5.434;2023-07-13T03:08:42;101453.00;;;16.19;82.00
61018;BME280;48171;51.550;5.434;2023-07-13T03:11:12;101454.84;;;16.15;81.27
61018;BME280;48171;51.550;5.434;2023-07-13T03:13:39;101448.66;;;16.13;81.24
61018;BME280;48171;51.550;5.434;2023-07-13T03:16:05;101456.78;;;16.07;81.39
61018;BME280;48171;51.550;5.434;2023-07-13T03:18:31;101442.69;;;16.02;81.72
61018;BME280;48171;51.550;5.434;2023-07-13T03:20:56;101452.31;;;16.09;81.95
61018;BME280;48171;51.550;5.434;2023-07-13T03:23:22;101452.31;;;16.08;81.67
61018;BME280;48171;51.550;5.434;2023-07-13T03:25:48;101449.66;;;16.08;81.80
61018;BME280;48171;51.550;5.434;2023-07-13T03:28:13;101444.38;;;16.06;82.35
61018;BME280;48171;51.550;5.434;2023-07-13T03:30:40;101454.94;;;16.12;83.18
61018;BME280;48171;51.550;5.434;2023-07-13T03:33:05;101459.38;;;16.12;83.00
61018;BME280;48171;51.550;5.434;2023-07-13T03:35:30;101463.00;;;16.08;82.69
61018;BME280;48171;51.550;5.434;2023-07-13T03:37:58;101470.06;;;16.10;83.14
61018;BME280;48171;51.550;5.434;2023-07-13T03:40:25;101471.81;;;16.11;83.10
61018;BME280;48171;51.550;5.434;2023-07-13T03:42:51;101464.81;;;16.06;83.93
61018;BME280;48171;51.550;5.434;2023-07-13T03:47:50;101471.13;;;16.02;83.71
61018;BME280;48171;51.550;5.434;2023-07-13T03:50:15;101475.66;;;15.98;84.04
61018;BME280;48171;51.550;5.434;2023-07-13T03:52:41;101480.91;;;16.01;84.69
61018;BME280;48171;51.550;5.434;2023-07-13T03:55:06;101467.81;;;15.89;83.71
61018;BME280;48171;51.550;5.434;2023-07-13T03:57:32;101487.09;;;16.02;84.58
61018;BME280;48171;51.550;5.434;2023-07-13T03:59:57;101486.25;;;15.99;84.43
61018;BME280;48171;51.550;5.434;2023-07-13T04:02:22;101493.41;;;15.97;84.31
61018;BME280;48171;51.550;5.434;2023-07-13T04:04:48;101490.69;;;16.00;85.10
61018;BME280;48171;51.550;5.434;2023-07-13T04:07:13;101494.22;;;16.01;85.49
61018;BME280;48171;51.550;5.434;2023-07-13T04:09:38;101501.34;;;16.00;85.21
61018;BME280;48171;51.550;5.434;2023-07-13T04:12:04;101493.38;;;16.00;85.84
61018;BME280;48171;51.550;5.434;2023-07-13T04:14:29;101497.78;;;16.02;85.81
61018;BME280;48171;51.550;5.434;2023-07-13T04:16:55;101505.75;;;16.03;87.04
61018;BME280;48171;51.550;5.434;2023-07-13T04:19:21;101503.94;;;16.04;86.78
61018;BME280;48171;51.550;5.434;2023-07-13T04:21:46;101511.91;;;16.07;87.31
61018;BME280;48171;51.550;5.434;2023-07-13T04:24:12;101508.38;;;16.06;87.20
61018;BME280;48171;51.550;5.434;2023-07-13T04:26:37;101506.63;;;16.04;87.19
61018;BME280;48171;51.550;5.434;2023-07-13T04:29:03;101511.94;;;16.04;87.95
61018;BME280;48171;51.550;5.434;2023-07-13T04:31:29;101512.75;;;16.09;88.28
61018;BME280;48171;51.550;5.434;2023-07-13T04:33:55;101508.25;;;16.11;88.06
61018;BME280;48171;51.550;5.434;2023-07-13T04:36:20;101506.44;;;16.14;88.23
61018;BME280;48171;51.550;5.434;2023-07-13T04:38:45;101505.50;;;16.15;87.57
61018;BME280;48171;51.550;5.434;2023-07-13T04:41:13;101511.75;;;16.14;88.63
61018;BME280;48171;51.550;5.434;2023-07-13T04:43:39;101524.16;;;16.17;89.53
61018;BME280;48171;51.550;5.434;2023-07-13T04:46:11;101518.81;;;16.17;89.34
61018;BME280;48171;51.550;5.434;2023-07-13T04:48:37;101524.09;;;16.20;89.65
61018;BME280;48171;51.550;5.434;2023-07-13T04:51:03;101524.03;;;16.22;90.28
61018;BME280;48171;51.550;5.434;2023-07-13T04:53:29;101530.22;;;16.24;90.49
61018;BME280;48171;51.550;5.434;2023-07-13T04:55:55;101532.03;;;16.23;90.41
61018;BME280;48171;51.550;5.434;2023-07-13T04:58:21;101531.97;;;16.26;90.71
61018;BME280;48171;51.550;5.434;2023-07-13T05:00:47;101522.19;;;16.27;91.11
61018;BME280;48171;51.550;5.434;2023-07-13T05:03:12;101528.28;;;16.32;91.29
61018;BME280;48171;51.550;5.434;2023-07-13T05:05:37;101532.66;;;16.36;91.54
61018;BME280;48171;51.550;5.434;2023-07-13T05:08:03;101530.88;;;16.36;91.78
61018;BME280;48171;51.550;5.434;2023-07-13T05:10:28;101541.44;;;16.41;92.06
61018;BME280;48171;51.550;5.434;2023-07-13T05:12:54;101533.34;;;16.46;92.03
61018;BME280;48171;51.550;5.434;2023-07-13T05:15:21;101532.44;;;16.47;92.62
61018;BME280;48171;51.550;5.434;2023-07-13T05:17:48;101537.78;;;16.47;92.42
61018;BME280;48171;51.550;5.434;2023-07-13T05:23:36;101548.38;;;16.50;93.48
61018;BME280;48171;51.550;5.434;2023-07-13T05:26:02;101551.03;;;16.51;93.42
61018;BME280;48171;51.550;5.434;2023-07-13T05:28:30;101547.41;;;16.54;93.48
61018;BME280;48171;51.550;5.434;2023-07-13T05:30:55;101552.66;;;16.58;93.72
61018;BME280;48171;51.550;5.434;2023-07-13T05:33:21;101556.19;;;16.60;94.05
61018;BME280;48171;51.550;5.434;2023-07-13T05:35:46;101554.31;;;16.64;94.30
61018;BME280;48171;51.550;5.434;2023-07-13T05:38:12;101548.09;;;16.64;94.25
61018;BME280;48171;51.550;5.434;2023-07-13T05:40:37;101544.53;;;16.65;93.61
61018;BME280;48171;51.550;5.434;2023-07-13T05:43:03;101564.84;;;16.70;93.94
61018;BME280;48171;51.550;5.434;2023-07-13T05:45:28;101564.00;;;16.68;93.67
61018;BME280;48171;51.550;5.434;2023-07-13T05:47:54;101562.13;;;16.73;94.14
61018;BME280;48171;51.550;5.434;2023-07-13T05:50:19;101559.47;;;16.73;94.29
61018;BME280;48171;51.550;5.434;2023-07-13T05:52:45;101563.78;;;16.80;94.35
61018;BME280;48171;51.550;5.434;2023-07-13T05:55:10;101569.06;;;16.84;94.42
61018;BME280;48171;51.550;5.434;2023-07-13T05:57:35;101560.16;;;16.85;94.20
61018;BME280;48171;51.550;5.434;2023-07-13T06:00:01;101568.09;;;16.86;95.03
61018;BME280;48171;51.550;5.434;2023-07-13T06:02:27;101569.00;;;16.87;94.82
61018;BME280;48171;51.550;5.434;2023-07-13T06:04:52;101577.91;;;16.86;93.33
61018;BME280;48171;51.550;5.434;2023-07-13T06:07:18;101575.22;;;16.87;93.89
61018;BME280;48171;51.550;5.434;2023-07-13T06:09:43;101587.63;;;16.90;94.73
61018;BME280;48171;51.550;5.434;2023-07-13T06:12:09;101578.63;;;16.94;94.90
61018;BME280;48171;51.550;5.434;2023-07-13T06:14:34;101581.25;;;16.97;94.14
61018;BME280;48171;51.550;5.434;2023-07-13T06:16:59;101585.53;;;17.04;95.06
61018;BME280;48171;51.550;5.434;2023-07-13T06:19:25;101575.72;;;17.05;94.09
61018;BME280;48171;51.550;5.434;2023-07-13T06:21:50;101584.53;;;17.08;94.56
61018;BME280;48171;51.550;5.434;2023-07-13T06:24:15;101590.72;;;17.10;95.02
61018;BME280;48171;51.550;5.434;2023-07-13T06:26:41;101590.72;;;17.10;94.41
61018;BME280;48171;51.550;5.434;2023-07-13T06:29:06;101590.59;;;17.16;94.41
61018;BME280;48171;51.550;5.434;2023-07-13T06:31:31;101586.16;;;17.17;93.54
61018;BME280;48171;51.550;5.434;2023-07-13T06:33:56;101592.34;;;17.19;93.36
61018;BME280;48171;51.550;5.434;2023-07-13T06:36:22;101597.63;;;17.20;93.91
61018;BME280;48171;51.550;5.434;2023-07-13T06:38:47;101596.72;;;17.22;94.01
61018;BME280;48171;51.550;5.434;2023-07-13T06:41:12;101607.44;;;17.18;92.59
61018;BME280;48171;51.550;5.434;2023-07-13T06:43:38;101603.94;;;17.16;93.81
61018;BME280;48171;51.550;5.434;2023-07-13T06:46:03;101610.25;;;17.12;93.32
61018;BME280;48171;51.550;5.434;2023-07-13T06:48:29;101612.91;;;17.14;94.23
61018;BME280;48171;51.550;5.434;2023-07-13T06:50:55;101607.59;;;17.12;93.92
61018;BME280;48171;51.550;5.434;2023-07-13T06:53:21;101608.41;;;17.16;94.90
61018;BME280;48171;51.550;5.434;2023-07-13T06:55:47;101618.06;;;17.23;94.78
61018;BME280;48171;51.550;5.434;2023-07-13T06:58:15;101609.13;;;17.24;93.80
61018;BME280;48171;51.550;5.434;2023-07-13T07:03:16;101622.28;;;17.33;93.61
61018;BME280;48171;51.550;5.434;2023-07-13T07:05:41;101619.59;;;17.33;92.71
61018;BME280;48171;51.550;5.434;2023-07-13T07:08:06;101616.94;;;17.33;93.32
61018;BME280;48171;51.550;5.434;2023-07-13T07:10:33;101622.16;;;17.38;94.11
61018;BME280;48171;51.550;5.434;2023-07-13T07:12:58;101622.13;;;17.39;93.99
61018;BME280;48171;51.550;5.434;2023-07-13T07:15:24;101620.34;;;17.40;92.92
61018;BME280;48171;51.550;5.434;2023-07-13T07:17:50;101616.72;;;17.43;92.99
61018;BME280;48171;51.550;5.434;2023-07-13T07:20:15;101617.56;;;17.45;92.47
61018;BME280;48171;51.550;5.434;2023-07-13T07:22:40;101621.13;;;17.45;92.94
61018;BME280;48171;51.550;5.434;2023-07-13T07:25:06;101621.06;;;17.47;93.19
61018;BME280;48171;51.550;5.434;2023-07-13T07:27:32;101635.25;;;17.49;93.81
61018;BME280;48171;51.550;5.434;2023-07-13T07:29:57;101624.53;;;17.50;93.44
61018;BME280;48171;51.550;5.434;2023-07-13T07:32:23;101635.19;;;17.53;93.44
61018;BME280;48171;51.550;5.434;2023-07-13T07:34:48;101629.75;;;17.56;92.55
61018;BME280;48171;51.550;5.434;2023-07-13T07:37:14;101638.63;;;17.57;92.54
61018;BME280;48171;51.550;5.434;2023-07-13T07:39:39;101640.38;;;17.59;91.79
61018;BME280;48171;51.550;5.434;2023-07-13T07:42:05;101632.38;;;17.59;92.18
61018;BME280;48171;51.550;5.434;2023-07-13T07:44:31;101632.25;;;17.64;92.09
61018;BME280;48171;51.550;5.434;2023-07-13T07:46:57;101633.06;;;17.68;92.23
61018;BME280;48171;51.550;5.434;2023-07-13T07:49:22;101636.56;;;17.70;91.11
61018;BME280;48171;51.550;5.434;2023-07-13T07:51:48;101624.94;;;17.71;92.12
61018;BME280;48171;51.550;5.434;2023-07-13T07:54:13;101631.06;;;17.76;93.27
61018;BME280;48171;51.550;5.434;2023-07-13T07:56:39;101634.56;;;17.79;91.63
61018;BME280;48171;51.550;5.434;2023-07-13T07:59:05;101635.31;;;17.86;91.47
61018;BME280;48171;51.550;5.434;2023-07-13T08:01:30;101641.53;;;17.87;90.76
61018;BME280;48171;51.550;5.434;2023-07-13T08:03:56;101633.59;;;17.84;88.71
61018;BME280;48171;51.550;5.434;2023-07-13T08:06:21;101639.78;;;17.86;89.48
61018;BME280;48171;51.550;5.434;2023-07-13T08:08:47;101640.63;;;17.88;89.51
61018;BME280;48171;51.550;5.434;2023-07-13T08:11:12;101631.69;;;17.89;88.78
61018;BME280;48171;51.550;5.434;2023-07-13T08:13:38;101636.13;;;17.90;86.92
61018;BME280;48171;51.550;5.434;2023-07-13T08:16:07;101640.56;;;17.89;87.33
61018;BME280;48171;51.550;5.434;2023-07-13T08:18:32;101643.06;;;17.97;88.25
61018;BME280;48171;51.550;5.434;2023-07-13T08:20:57;101642.00;;;18.04;89.00
61018;BME280;48171;51.550;5.434;2023-07-13T08:23:24;101637.47;;;18.08;87.26
61018;BME280;48171;51.550;5.434;2023-07-13T08:25:51;101641.81;;;18.12;87.27
61018;BME280;48171;51.550;5.434;2023-07-13T08:28:17;101630.03;;;18.17;86.07
61018;BME280;48171;51.550;5.434;2023-07-13T08:30:42;101634.31;;;18.26;88.66
61018;BME280;48171;51.550;5.434;2023-07-13T08:33:07;101639.50;;;18.32;88.22
61018;BME280;48171;51.550;5.434;2023-07-13T08:35:33;101635.03;;;18.31;84.18
61018;BME280;48171;51.550;5.434;2023-07-13T08:37:58;101634.19;;;18.29;83.27
61018;BME280;48171;51.550;5.434;2023-07-13T08:40:27;101643.03;;;18.33;84.80
61018;BME280;48171;51.550;5.434;2023-07-13T08:42:58;101642.84;;;18.41;85.94
61018;BME280;48171;51.550;5.434;2023-07-13T08:45:30;101635.53;;;18.46;81.97
61018;BME280;48171;51.550;5.434;2023-07-13T08:48:05;101639.78;;;18.54;82.50
61018;BME280;48171;51.550;5.434;2023-07-13T08:50:41;101634.38;;;18.56;81.84
61018;BME280;48171;51.550;5.434;2023-07-13T08:53:13;101636.03;;;18.60;83.10
61018;BME280;48171;51.550;5.434;2023-07-13T08:55:39;101639.47;;;18.65;83.66
61018;BME280;48171;51.550;5.434;2023-07-13T08:58:15;101644.66;;;18.71;83.77
61018;BME280;48171;51.550;5.434;2023-07-13T09:00:48;101635.66;;;18.74;82.80
61018;BME280;48171;51.550;5.434;2023-07-13T09:03:23;101630.31;;;18.74;82.00
61018;BME280;48171;51.550;5.434;2023-07-13T09:05:57;101639.13;;;18.77;81.80
61018;BME280;48171;51.550;5.434;2023-07-13T09:08:46;101633.66;;;18.82;80.81
61018;BME280;48171;51.550;5.434;2023-07-13T09:11:42;101639.97;;;18.81;79.07
61018;BME280;48171;51.550;5.434;2023-07-13T09:14:26;101642.28;;;18.93;81.90
61018;BME280;48171;51.550;5.434;2023-07-13T09:16:57;101637.75;;;18.95;79.92
61018;BME280;48171;51.550;5.434;2023-07-13T09:19:28;101635.16;;;18.92;75.96
61018;BME280;48171;51.550;5.434;2023-07-13T09:21:55;101633.31;;;18.94;77.98
61018;BME280;48171;51.550;5.434;2023-07-13T09:24:29;101635.94;;;18.96;76.92
61018;BME280;48171;51.550;5.434;2023-07-13T09:26:57;101636.53;;;19.07;80.09
61018;BME280;48171;51.550;5.434;2023-07-13T09:29:29;101633.63;;;19.15;78.12
61018;BME280;48171;51.550;5.434;2023-07-13T09:31:57;101642.53;;;19.15;76.10
61018;BME280;48171;51.550;5.434;2023-07-13T09:34:25;101632.66;;;19.17;74.80
61018;BME280;48171;51.550;5.434;2023-07-13T09:36:51;101629.09;;;19.17;76.31
61018;BME280;48171;51.550;5.434;2023-07-13T09:39:55;101629.59;;;19.30;79.57
61018;BME280;48171;51.550;5.434;2023-07-13T09:42:22;101633.84;;;19.37;75.70
61018;BME280;48171;51.550;5.434;2023-07-13T09:44:56;101633.78;;;19.38;76.18
61018;BME280;48171;51.550;5.434;2023-07-13T09:47:24;101639.22;;;19.37;74.66
61018;BME280;48171;51.550;5.434;2023-07-13T09:49:59;101635.66;;;19.35;76.76
61018;BME280;48171;51.550;5.434;2023-07-13T09:52:26;101635.38;;;19.44;77.12
61018;BME280;48171;51.550;5.434;2023-07-13T09:54:53;101634.53;;;19.44;76.50
61018;BME280;48171;51.550;5.434;2023-07-13T09:57:24;101647.72;;;19.50;75.70
61018;BME280;48171;51.550;5.434;2023-07-13T09:59:52;101644.03;;;19.54;76.14
61018;BME280;48171;51.550;5.434;2023-07-13T10:02:27;101636.91;;;19.53;72.96
61018;BME280;48171;51.550;5.434;2023-07-13T10:05:02;101633.09;;;19.60;74.51
61018;BME280;48171;51.550;5.434;2023-07-13T10:07:30;101644.41;;;19.71;74.21
61018;BME280;48171;51.550;5.434;2023-07-13T10:09:57;101644.09;;;19.81;73.62
61018;BME280;48171;51.550;5.434;2023-07-13T10:12:24;101644.00;;;19.84;73.42
61018;BME280;48171;51.550;5.434;2023-07-13T10:15:19;101636.66;;;19.89;72.65
61018;BME280;48171;51.550;5.434;2023-07-13T10:17:46;101638.47;;;19.88;70.63
61018;BME280;48171;51.550;5.434;2023-07-13T10:20:11;101633.81;;;19.93;70.59
61018;BME280;48171;51.550;5.434;2023-07-13T10:25:23;101647.56;;;20.11;70.64
61018;BME280;48171;51.550;5.434;2023-07-13T10:27:51;101641.16;;;20.15;73.41
61018;BME280;48171;51.550;5.434;2023-07-13T10:30:29;101648.22;;;20.17;69.70
61018;BME280;48171;51.550;5.434;2023-07-13T10:33:05;101641.16;;;20.15;68.40
61018;BME280;48171;51.550;5.434;2023-07-13T10:35:34;101645.81;;;20.10;68.18
61018;BME280;48171;51.550;5.434;2023-07-13T10:38:06;101650.44;;;20.05;69.24
61018;BME280;48171;51.550;5.434;2023-07-13T10:40:39;101646.19;;;19.97;69.01
61018;BME280;48171;51.550;5.434;2023-07-13T10:43:35;101657.13;;;19.91;70.74
61018;BME280;48171;51.550;5.434;2023-07-13T10:46:03;101670.91;;;19.81;73.63
61018;BME280;48171;51.550;5.434;2023-07-13T10:48:30;101682.28;;;19.59;77.57
61018;BME280;48171;51.550;5.434;2023-07-13T10:50:59;101673.53;;;19.24;85.23
61018;BME280;48171;51.550;5.434;2023-07-13T10:53:32;101684.75;;;19.07;87.04
61018;BME280;48171;51.550;5.434;2023-07-13T10:58:42;101684.19;;;18.94;90.06
61018;BME280;48171;51.550;5.434;2023-07-13T11:01:18;101674.31;;;18.96;92.86
61018;BME280;48171;51.550;5.434;2023-07-13T11:06:27;101679.47;;;19.04;91.96
61018;BME280;48171;51.550;5.434;2023-07-13T11:08:56;101683.81;;;19.08;93.33
61018;BME280;48171;51.550;5.434;2023-07-13T11:18:49;101680.06;;;19.45;91.63
61018;BME280;48171;51.550;5.434;2023-07-13T11:21:20;101678.75;;;19.57;90.02
61018;BME280;48171;51.550;5.434;2023-07-13T11:24:04;101678.69;;;19.60;85.99
61018;BME280;48171;51.550;5.434;2023-07-13T11:29:32;101675.66;;;19.72;85.79
61018;BME280;48171;51.550;5.434;2023-07-13T11:32:01;101673.41;;;19.87;88.34
61018;BME280;48171;51.550;5.434;2023-07-13T11:34:30;101671.34;;;19.95;84.73
61018;BME280;48171;51.550;5.434;2023-07-13T11:36:59;101678.47;;;19.96;86.91
61018;BME280;48171;51.550;5.434;2023-07-13T11:42:13;101668.59;;;19.96;80.80
61018;BME280;48171;51.550;5.434;2023-07-13T11:44:49;101670.34;;;19.97;82.32
61018;BME280;48171;51.550;5.434;2023-07-13T11:47:18;101678.59;;;19.91;81.37
61018;BME280;48171;51.550;5.434;2023-07-13T11:49:53;101684.25;;;19.84;80.47
61018;BME280;48171;51.550;5.434;2023-07-13T11:52:32;101682.03;;;19.67;78.69
61018;BME280;48171;51.550;5.434;2023-07-13T11:55:00;101683.28;;;19.55;81.88
61018;BME280;48171;51.550;5.434;2023-07-13T11:57:31;101684.31;;;19.51;80.32
61018;BME280;48171;51.550;5.434;2023-07-13T12:00:03;101682.72;;;19.45;81.81
61018;BME280;48171;51.550;5.434;2023-07-13T12:02:32;101676.66;;;19.38;78.13
61018;BME280;48171;51.550;5.434;2023-07-13T12:05:00;101679.47;;;19.34;78.59
61018;BME280;48171;51.550;5.434;2023-07-13T12:07:29;101688.50;;;19.31;79.24
61018;BME280;48171;51.550;5.434;2023-07-13T12:10:18;101684.84;;;19.34;80.74
61018;BME280;48171;51.550;5.434;2023-07-13T12:12:53;101689.25;;;19.35;79.43
61018;BME280;48171;51.550;5.434;2023-07-13T12:15:20;101674.16;;;19.32;77.76
61018;BME280;48171;51.550;5.434;2023-07-13T12:17:47;101676.72;;;19.37;78.41
61018;BME280;48171;51.550;5.434;2023-07-13T12:20:35;101673.78;;;19.45;79.06
61018;BME280;48171;51.550;5.434;2023-07-13T12:23:05;101669.81;;;19.58;80.03
61018;BME280;48171;51.550;5.434;2023-07-13T12:25:30;101673.84;;;19.73;81.88
61018;BME280;48171;51.550;5.434;2023-07-13T12:27:56;101663.66;;;19.84;79.00
61018;BME280;48171;51.550;5.434;2023-07-13T12:30:30;101673.97;;;19.96;78.55
61018;BME280;48171;51.550;5.434;2023-07-13T12:33:07;101675.38;;;20.08;78.00
61018;BME280;48171;51.550;5.434;2023-07-13T12:35:48;101683.19;;;20.16;72.54
61018;BME280;48171;51.550;5.434;2023-07-13T12:38:15;101681.25;;;20.19;70.80
61018;BME280;48171;51.550;5.434;2023-07-13T12:40:41;101671.00;;;20.32;67.07
61018;BME280;48171;51.550;5.434;2023-07-13T12:43:13;101680.44;;;20.44;67.73
61018;BME280;48171;51.550;5.434;2023-07-13T12:45:39;101674.97;;;20.46;65.94
61018;BME280;48171;51.550;5.434;2023-07-13T12:48:20;101667.81;;;20.46;64.46
61018;BME280;48171;51.550;5.434;2023-07-13T12:50:49;101684.69;;;20.50;65.81
61018;BME280;48171;51.550;5.434;2023-07-13T12:53:19;101684.63;;;20.51;65.43
61018;BME280;48171;51.550;5.434;2023-07-13T12:56:05;101685.41;;;20.55;66.82
61018;BME280;48171;51.550;5.434;2023-07-13T12:58:41;101693.41;;;20.56;68.18
61018;BME280;48171;51.550;5.434;2023-07-13T13:01:10;101688.25;;;20.50;64.99
61018;BME280;48171;51.550;5.434;2023-07-13T13:03:46;101692.84;;;20.47;64.95
61018;BME280;48171;51.550;5.434;2023-07-13T13:08:46;101676.28;;;20.34;62.84
61018;BME280;48171;51.550;5.434;2023-07-13T13:11:13;101686.88;;;20.38;64.07
61018;BME280;48171;51.550;5.434;2023-07-13T13:13:41;101692.25;;;20.38;62.71
61018;BME280;48171;51.550;5.434;2023-07-13T13:16:30;101688.69;;;20.38;63.21
61018;BME280;48171;51.550;5.434;2023-07-13T13:19:00;101694.94;;;20.38;64.23
61018;BME280;48171;51.550;5.434;2023-07-13T13:21:27;101695.84;;;20.37;63.79
61018;BME280;48171;51.550;5.434;2023-07-13T13:23:53;101702.00;;;20.41;65.50
61018;BME280;48171;51.550;5.434;2023-07-13T13:26:19;101703.69;;;20.44;64.32
61018;BME280;48171;51.550;5.434;2023-07-13T13:28:45;101705.25;;;20.51;64.11
61018;BME280;48171;51.550;5.434;2023-07-13T13:31:12;101713.06;;;20.57;65.30
61018;BME280;48171;51.550;5.434;2023-07-13T13:33:40;101709.44;;;20.58;65.06